Terminal Aerodrome Forecast
Issued by NWS

Home | Current Version | Previous Version | Text Only | Print | Product List | Glossary On
Versions: 1 2 3 4 5 6 7 8 9 10 11 12 13 14 15 16 17 18 19 20 21 22 23 24 25 26 27 28 29 30 31 32 33 34 35 36 37 38 39 40 41 42 43 44 45 46 47 48 49 50
568
FTUS44 KHGX 210536
TAFSGR
TAF
KSGR 210536Z 2106/2206 17005KT 5SM BR SCT005
      TEMPO 2106/2108 3SM BR BKN005
     FM210800 20003KT 4SM BR OVC004
      TEMPO 2110/2114 1 1/2SM BR
     FM211600 31008KT P6SM FEW020 SCT120
     FM212000 32012KT P6SM FEW250
     FM220100 31007KT P6SM SKC=

USA.gov is the U.S. government's official web portal to all federal, state and local government web resources and services.